sensor_id;sensor_type;location;lat;lon;timestamp;pressure;altitude;pressure_sealevel;temperature;humidity
71697;BME280;68167;59.120;37.898;2023-05-08T00:01:06;101352.28;;;5.57;52.84
71697;BME280;68167;59.120;37.898;2023-05-08T00:03:32;101314.97;;;5.30;52.65
71697;BME280;68167;59.120;37.898;2023-05-08T00:06:02;101357.56;;;5.42;52.51
71697;BME280;68167;59.120;37.898;2023-05-08T00:08:29;101342.38;;;5.29;52.54
71697;BME280;68167;59.120;37.898;2023-05-08T00:10:55;101357.84;;;5.33;53.82
71697;BME280;68167;59.120;37.898;2023-05-08T00:13:22;101286.16;;;4.85;53.04
71697;BME280;68167;59.120;37.898;2023-05-08T00:15:49;101340.59;;;5.15;53.69
71697;BME280;68167;59.120;37.898;2023-05-08T00:18:15;101332.75;;;5.07;53.10
71697;BME280;68167;59.120;37.898;2023-05-08T00:20:42;101343.78;;;5.11;54.03
71697;BME280;68167;59.120;37.898;2023-05-08T00:23:09;101352.69;;;5.10;53.91
71697;BME280;68167;59.120;37.898;2023-05-08T00:25:35;101368.78;;;5.15;53.58
71697;BME280;68167;59.120;37.898;2023-05-08T00:28:02;101369.97;;;5.12;53.77
71697;BME280;68167;59.120;37.898;2023-05-08T00:30:28;101311.16;;;4.74;54.07
71697;BME280;68167;59.120;37.898;2023-05-08T00:32:55;101362.50;;;5.01;54.35
71697;BME280;68167;59.120;37.898;2023-05-08T00:35:22;101368.78;;;5.00;54.93
71697;BME280;68167;59.120;37.898;2023-05-08T00:37:48;101325.06;;;4.68;55.26
71697;BME280;68167;59.120;37.898;2023-05-08T00:40:15;101309.88;;;4.55;55.43
71697;BME280;68167;59.120;37.898;2023-05-08T00:42:41;101227.69;;;4.00;55.09
71697;BME280;68167;59.120;37.898;2023-05-08T00:45:08;101370.59;;;4.85;55.55
71697;BME280;68167;59.120;37.898;2023-05-08T00:47:54;101335.22;;;4.56;55.30
71697;BME280;68167;59.120;37.898;2023-05-08T00:50:20;101365.75;;;4.74;55.35
71697;BME280;68167;59.120;37.898;2023-05-08T00:52:47;101381.50;;;4.82;55.76
71697;BME280;68167;59.120;37.898;2023-05-08T00:55:15;101370.91;;;4.67;55.94
71697;BME280;68167;59.120;37.898;2023-05-08T00:57:41;101385.03;;;4.74;55.34
71697;BME280;68167;59.120;37.898;2023-05-08T01:00:12;101219.72;;;3.70;55.33
71697;BME280;68167;59.120;37.898;2023-05-08T01:02:39;101376.06;;;4.60;55.79
71697;BME280;68167;59.120;37.898;2023-05-08T01:05:09;101387.25;;;4.62;56.25
71697;BME280;68167;59.120;37.898;2023-05-08T01:07:36;101387.63;;;4.59;56.49
71697;BME280;68167;59.120;37.898;2023-05-08T01:10:05;101380.53;;;4.60;55.87
71697;BME280;68167;59.120;37.898;2023-05-08T01:15:11;101396.16;;;4.61;56.07
71697;BME280;68167;59.120;37.898;2023-05-08T01:18:41;101397.81;;;4.62;55.32
71697;BME280;68167;59.120;37.898;2023-05-08T01:20:55;101360.31;;;4.38;56.20
71697;BME280;68167;59.120;37.898;2023-05-08T01:23:50;101398.00;;;4.61;55.89
71697;BME280;68167;59.120;37.898;2023-05-08T01:26:34;101400.81;;;4.59;56.61
71697;BME280;68167;59.120;37.898;2023-05-08T01:29:26;101392.88;;;4.59;55.58
71697;BME280;68167;59.120;37.898;2023-05-08T01:32:16;101414.81;;;4.60;56.44
71697;BME280;68167;59.120;37.898;2023-05-08T01:34:59;101367.38;;;4.37;56.32
71697;BME280;68167;59.120;37.898;2023-05-08T01:37:39;101412.00;;;4.61;57.02
71697;BME280;68167;59.120;37.898;2023-05-08T01:42:52;101411.63;;;4.64;56.65
71697;BME280;68167;59.120;37.898;2023-05-08T01:45:30;101358.84;;;4.35;57.12
71697;BME280;68167;59.120;37.898;2023-05-08T01:48:08;101411.00;;;4.62;56.53
71697;BME280;68167;59.120;37.898;2023-05-08T01:50:45;101408.53;;;4.61;56.48
71697;BME280;68167;59.120;37.898;2023-05-08T01:53:22;101361.00;;;4.32;56.27
71697;BME280;68167;59.120;37.898;2023-05-08T01:55:55;101418.38;;;4.67;57.11
71697;BME280;68167;59.120;37.898;2023-05-08T01:58:24;101403.25;;;4.61;57.31
71697;BME280;68167;59.120;37.898;2023-05-08T02:00:52;101405.09;;;4.60;56.88
71697;BME280;68167;59.120;37.898;2023-05-08T02:03:21;101348.53;;;4.25;57.76
71697;BME280;68167;59.120;37.898;2023-05-08T02:05:50;101405.25;;;4.59;56.86
71697;BME280;68167;59.120;37.898;2023-05-08T02:08:20;101413.97;;;4.59;56.91
71697;BME280;68167;59.120;37.898;2023-05-08T02:10:49;101371.50;;;4.40;57.46
71697;BME280;68167;59.120;37.898;2023-05-08T02:13:18;101404.63;;;4.57;57.95
71697;BME280;68167;59.120;37.898;2023-05-08T02:15:47;101373.13;;;4.41;57.47
71697;BME280;68167;59.120;37.898;2023-05-08T02:18:17;101415.75;;;4.67;57.24
71697;BME280;68167;59.120;37.898;2023-05-08T02:20:48;101417.03;;;4.71;57.24
71697;BME280;68167;59.120;37.898;2023-05-08T02:23:35;101415.69;;;4.75;57.26
71697;BME280;68167;59.120;37.898;2023-05-08T02:26:02;101382.69;;;4.56;56.98
71697;BME280;68167;59.120;37.898;2023-05-08T02:28:30;101433.19;;;4.91;57.20
71697;BME280;68167;59.120;37.898;2023-05-08T02:30:59;101416.25;;;4.85;57.06
71697;BME280;68167;59.120;37.898;2023-05-08T02:33:28;101389.38;;;4.67;57.29
71697;BME280;68167;59.120;37.898;2023-05-08T02:35:58;101376.53;;;4.64;56.92
71697;BME280;68167;59.120;37.898;2023-05-08T02:38:25;101431.13;;;5.01;57.02
71697;BME280;68167;59.120;37.898;2023-05-08T02:40:54;101404.97;;;4.91;56.60
71697;BME280;68167;59.120;37.898;2023-05-08T02:43:23;101405.44;;;4.95;57.33
71697;BME280;68167;59.120;37.898;2023-05-08T02:46:09;101445.06;;;5.24;57.13
71697;BME280;68167;59.120;37.898;2023-05-08T02:54:03;101420.00;;;5.20;56.33
71697;BME280;68167;59.120;37.898;2023-05-08T02:56:37;101372.41;;;4.99;56.96
71697;BME280;68167;59.120;37.898;2023-05-08T02:59:19;101447.25;;;5.36;56.39
71697;BME280;68167;59.120;37.898;2023-05-08T03:02:11;101442.59;;;5.38;56.83
71697;BME280;68167;59.120;37.898;2023-05-08T03:04:54;101437.03;;;5.33;56.31
71697;BME280;68167;59.120;37.898;2023-05-08T03:07:26;101402.81;;;5.10;56.49
71697;BME280;68167;59.120;37.898;2023-05-08T03:09:59;101446.72;;;5.40;57.03
71697;BME280;68167;59.120;37.898;2023-05-08T03:12:27;101394.34;;;5.00;56.62
71697;BME280;68167;59.120;37.898;2023-05-08T03:15:01;101444.06;;;5.40;56.11
71697;BME280;68167;59.120;37.898;2023-05-08T03:17:32;101444.06;;;5.40;56.06
71697;BME280;68167;59.120;37.898;2023-05-08T03:20:06;101444.97;;;5.47;56.79
71697;BME280;68167;59.120;37.898;2023-05-08T03:22:35;101443.44;;;5.53;56.60
71697;BME280;68167;59.120;37.898;2023-05-08T03:25:04;101406.53;;;5.30;55.98
71697;BME280;68167;59.120;37.898;2023-05-08T03:27:34;101463.94;;;5.66;56.61
71697;BME280;68167;59.120;37.898;2023-05-08T03:30:03;101429.94;;;5.48;56.36
71697;BME280;68167;59.120;37.898;2023-05-08T03:32:33;101452.53;;;5.65;56.51
71697;BME280;68167;59.120;37.898;2023-05-08T03:35:01;101448.25;;;5.64;56.51
71697;BME280;68167;59.120;37.898;2023-05-08T03:37:31;101436.78;;;5.57;57.42
71697;BME280;68167;59.120;37.898;2023-05-08T03:39:59;101395.16;;;5.29;56.67
71697;BME280;68167;59.120;37.898;2023-05-08T03:42:26;101443.97;;;5.63;57.55
71697;BME280;68167;59.120;37.898;2023-05-08T03:44:53;101452.09;;;5.76;57.33
71697;BME280;68167;59.120;37.898;2023-05-08T03:47:20;101424.22;;;5.59;57.61
71697;BME280;68167;59.120;37.898;2023-05-08T03:49:49;101417.47;;;5.71;56.56
71697;BME280;68167;59.120;37.898;2023-05-08T03:52:16;101446.97;;;5.89;56.71
71697;BME280;68167;59.120;37.898;2023-05-08T03:54:43;101460.53;;;6.01;56.75
71697;BME280;68167;59.120;37.898;2023-05-08T03:57:11;101412.75;;;5.67;56.63
71697;BME280;68167;59.120;37.898;2023-05-08T04:02:49;101467.19;;;5.97;55.97
71697;BME280;68167;59.120;37.898;2023-05-08T04:05:34;101456.63;;;5.82;56.06
71697;BME280;68167;59.120;37.898;2023-05-08T04:08:16;101474.56;;;5.87;55.91
71697;BME280;68167;59.120;37.898;2023-05-08T04:10:50;101457.63;;;5.81;56.26
71697;BME280;68167;59.120;37.898;2023-05-08T04:13:36;101479.50;;;5.90;55.71
71697;BME280;68167;59.120;37.898;2023-05-08T04:16:22;101487.88;;;5.93;55.66
71697;BME280;68167;59.120;37.898;2023-05-08T04:19:00;101479.78;;;5.95;55.99
71697;BME280;68167;59.120;37.898;2023-05-08T04:21:29;101475.56;;;6.01;56.20
71697;BME280;68167;59.120;37.898;2023-05-08T04:24:01;101420.56;;;5.75;56.09
71697;BME280;68167;59.120;37.898;2023-05-08T04:26:30;101471.53;;;6.19;55.45
71697;BME280;68167;59.120;37.898;2023-05-08T04:28:58;101466.38;;;6.33;55.53
71697;BME280;68167;59.120;37.898;2023-05-08T04:31:25;101470.09;;;6.59;55.30
71697;BME280;68167;59.120;37.898;2023-05-08T04:33:53;101470.94;;;6.81;54.88
71697;BME280;68167;59.120;37.898;2023-05-08T04:36:19;101462.16;;;7.02;54.85
71697;BME280;68167;59.120;37.898;2023-05-08T04:38:46;101458.03;;;7.27;54.56
71697;BME280;68167;59.120;37.898;2023-05-08T04:41:13;101451.34;;;7.32;53.81
71697;BME280;68167;59.120;37.898;2023-05-08T04:43:41;101396.59;;;7.04;53.81
71697;BME280;68167;59.120;37.898;2023-05-08T04:46:08;101451.00;;;7.41;53.44
71697;BME280;68167;59.120;37.898;2023-05-08T04:48:34;101438.88;;;7.25;53.22
71697;BME280;68167;59.120;37.898;2023-05-08T04:51:01;101446.63;;;7.27;52.87
71697;BME280;68167;59.120;37.898;2023-05-08T04:53:28;101453.13;;;7.24;52.77
71697;BME280;68167;59.120;37.898;2023-05-08T04:55:54;101432.88;;;7.10;52.20
71697;BME280;68167;59.120;37.898;2023-05-08T04:58:22;101462.84;;;7.17;51.33
71697;BME280;68167;59.120;37.898;2023-05-08T05:00:49;101438.13;;;7.04;51.27
71697;BME280;68167;59.120;37.898;2023-05-08T05:03:16;101456.53;;;7.18;51.74
71697;BME280;68167;59.120;37.898;2023-05-08T05:05:42;101449.41;;;7.19;50.99
71697;BME280;68167;59.120;37.898;2023-05-08T05:08:09;101437.22;;;7.24;50.82
71697;BME280;68167;59.120;37.898;2023-05-08T05:10:37;101444.44;;;7.37;50.40
71697;BME280;68167;59.120;37.898;2023-05-08T05:13:04;101463.34;;;7.62;49.50
71697;BME280;68167;59.120;37.898;2023-05-08T05:15:31;101423.16;;;7.52;49.65
71697;BME280;68167;59.120;37.898;2023-05-08T05:17:58;101454.91;;;7.93;48.96
71697;BME280;68167;59.120;37.898;2023-05-08T05:20:24;101446.00;;;8.07;48.74
71697;BME280;68167;59.120;37.898;2023-05-08T05:22:51;101431.69;;;8.02;48.47
71697;BME280;68167;59.120;37.898;2023-05-08T05:25:17;101414.16;;;8.01;48.61
71697;BME280;68167;59.120;37.898;2023-05-08T05:27:44;101457.50;;;8.27;48.23
71697;BME280;68167;59.120;37.898;2023-05-08T05:30:11;101471.19;;;8.31;48.65
71697;BME280;68167;59.120;37.898;2023-05-08T05:32:37;101463.19;;;8.24;48.11
71697;BME280;68167;59.120;37.898;2023-05-08T05:35:05;101423.31;;;7.98;48.85
71697;BME280;68167;59.120;37.898;2023-05-08T05:37:33;101463.38;;;8.16;48.96
71697;BME280;68167;59.120;37.898;2023-05-08T05:39:59;101464.59;;;8.14;49.06
71697;BME280;68167;59.120;37.898;2023-05-08T05:42:26;101386.34;;;7.70;48.92
71697;BME280;68167;59.120;37.898;2023-05-08T05:44:54;101446.81;;;8.08;48.90
71697;BME280;68167;59.120;37.898;2023-05-08T05:47:22;101420.69;;;7.98;48.50
71697;BME280;68167;59.120;37.898;2023-05-08T05:49:48;101473.28;;;8.36;48.28
71697;BME280;68167;59.120;37.898;2023-05-08T05:52:15;101421.56;;;8.25;48.42
71697;BME280;68167;59.120;37.898;2023-05-08T05:54:42;101477.59;;;8.70;46.83
71697;BME280;68167;59.120;37.898;2023-05-08T05:57:08;101380.56;;;8.21;47.34
71697;BME280;68167;59.120;37.898;2023-05-08T05:59:35;101471.91;;;8.79;47.35
71697;BME280;68167;59.120;37.898;2023-05-08T06:02:01;101427.38;;;8.62;47.21
71697;BME280;68167;59.120;37.898;2023-05-08T06:04:28;101475.38;;;9.00;47.74
71697;BME280;68167;59.120;37.898;2023-05-08T06:06:54;101425.94;;;8.79;47.01
71697;BME280;68167;59.120;37.898;2023-05-08T06:09:21;101453.94;;;9.01;46.55
71697;BME280;68167;59.120;37.898;2023-05-08T06:11:51;101472.31;;;9.09;46.80
71697;BME280;68167;59.120;37.898;2023-05-08T06:14:17;101471.69;;;9.14;45.76
71697;BME280;68167;59.120;37.898;2023-05-08T06:16:43;101442.50;;;8.87;45.26
71697;BME280;68167;59.120;37.898;2023-05-08T06:19:10;101430.25;;;8.93;46.24
71697;BME280;68167;59.120;37.898;2023-05-08T06:21:37;101443.72;;;9.05;45.60
71697;BME280;68167;59.120;37.898;2023-05-08T06:24:05;101466.56;;;9.19;45.68
71697;BME280;68167;59.120;37.898;2023-05-08T06:26:31;101474.53;;;9.25;45.69
71697;BME280;68167;59.120;37.898;2023-05-08T06:28:58;101415.31;;;8.92;46.36
71697;BME280;68167;59.120;37.898;2023-05-08T06:31:24;101473.91;;;9.37;45.58
71697;BME280;68167;59.120;37.898;2023-05-08T06:33:51;101471.88;;;9.39;45.74
71697;BME280;68167;59.120;37.898;2023-05-08T06:36:17;101437.31;;;9.32;45.41
71697;BME280;68167;59.120;37.898;2023-05-08T06:38:43;101409.75;;;9.27;44.78
71697;BME280;68167;59.120;37.898;2023-05-08T06:41:10;101471.97;;;9.77;44.32
71697;BME280;68167;59.120;37.898;2023-05-08T06:43:36;101428.88;;;9.62;43.53
71697;BME280;68167;59.120;37.898;2023-05-08T06:46:02;101472.72;;;9.97;43.06
71697;BME280;68167;59.120;37.898;2023-05-08T06:48:29;101479.66;;;10.05;42.54
71697;BME280;68167;59.120;37.898;2023-05-08T06:50:55;101436.34;;;9.84;41.66
71697;BME280;68167;59.120;37.898;2023-05-08T06:53:22;101465.50;;;10.11;41.37
71697;BME280;68167;59.120;37.898;2023-05-08T06:55:48;101488.22;;;10.20;41.19
71697;BME280;68167;59.120;37.898;2023-05-08T06:58:15;101393.59;;;9.79;41.07
71697;BME280;68167;59.120;37.898;2023-05-08T07:00:41;101389.28;;;9.85;40.74
71697;BME280;68167;59.120;37.898;2023-05-08T07:03:08;101481.38;;;10.37;40.62
71697;BME280;68167;59.120;37.898;2023-05-08T07:05:34;101470.63;;;10.50;40.67
71697;BME280;68167;59.120;37.898;2023-05-08T07:08:01;101468.56;;;10.52;40.05
71697;BME280;68167;59.120;37.898;2023-05-08T07:10:27;101433.50;;;10.31;39.66
71697;BME280;68167;59.120;37.898;2023-05-08T07:12:53;101429.31;;;10.41;39.51
71697;BME280;68167;59.120;37.898;2023-05-08T07:15:20;101462.28;;;10.72;39.60
71697;BME280;68167;59.120;37.898;2023-05-08T07:17:47;101451.63;;;10.72;38.38
71697;BME280;68167;59.120;37.898;2023-05-08T07:20:13;101427.13;;;10.63;38.32
71697;BME280;68167;59.120;37.898;2023-05-08T07:22:40;101477.66;;;11.01;38.12
71697;BME280;68167;59.120;37.898;2023-05-08T07:25:06;101451.72;;;11.08;37.64
71697;BME280;68167;59.120;37.898;2023-05-08T07:27:33;101452.66;;;11.20;37.36
71697;BME280;68167;59.120;37.898;2023-05-08T07:30:00;101408.44;;;11.13;36.84
71697;BME280;68167;59.120;37.898;2023-05-08T07:32:34;101444.03;;;11.62;36.88
71697;BME280;68167;59.120;37.898;2023-05-08T07:35:04;101434.44;;;11.72;36.28
71697;BME280;68167;59.120;37.898;2023-05-08T07:37:33;101381.28;;;11.41;36.21
71697;BME280;68167;59.120;37.898;2023-05-08T07:39:59;101411.13;;;11.49;36.42
71697;BME280;68167;59.120;37.898;2023-05-08T07:42:26;101442.19;;;11.62;36.88
71697;BME280;68167;59.120;37.898;2023-05-08T07:44:52;101435.00;;;11.63;36.13
71697;BME280;68167;59.120;37.898;2023-05-08T07:47:18;101438.47;;;11.63;36.34
71697;BME280;68167;59.120;37.898;2023-05-08T07:49:45;101445.06;;;11.61;35.69
71697;BME280;68167;59.120;37.898;2023-05-08T07:52:11;101450.47;;;11.54;35.67
71697;BME280;68167;59.120;37.898;2023-05-08T07:54:38;101409.72;;;11.47;35.64
71697;BME280;68167;59.120;37.898;2023-05-08T07:57:04;101393.06;;;11.51;35.37
71697;BME280;68167;59.120;37.898;2023-05-08T07:59:30;101446.72;;;11.62;35.00
71697;BME280;68167;59.120;37.898;2023-05-08T08:01:57;101432.47;;;11.49;35.44
71697;BME280;68167;59.120;37.898;2023-05-08T08:04:23;101409.91;;;11.09;35.68
71697;BME280;68167;59.120;37.898;2023-05-08T08:06:50;101419.69;;;11.15;35.83
71697;BME280;68167;59.120;37.898;2023-05-08T08:09:16;101412.19;;;11.05;35.23
71697;BME280;68167;59.120;37.898;2023-05-08T08:11:43;101422.84;;;11.05;35.68
71697;BME280;68167;59.120;37.898;2023-05-08T08:14:09;101395.44;;;10.80;36.14
71697;BME280;68167;59.120;37.898;2023-05-08T08:16:35;101434.69;;;10.91;36.45
71697;BME280;68167;59.120;37.898;2023-05-08T08:19:02;101407.56;;;10.76;35.92
71697;BME280;68167;59.120;37.898;2023-05-08T08:21:28;101414.72;;;10.75;35.57
71697;BME280;68167;59.120;37.898;2023-05-08T08:23:56;101441.06;;;10.90;36.07
71697;BME280;68167;59.120;37.898;2023-05-08T08:26:23;101451.06;;;10.95;35.81
71697;BME280;68167;59.120;37.898;2023-05-08T08:28:50;101438.59;;;10.88;36.09
71697;BME280;68167;59.120;37.898;2023-05-08T08:31:16;101427.19;;;10.81;36.21
71697;BME280;68167;59.120;37.898;2023-05-08T08:33:45;101398.91;;;10.55;36.67
71697;BME280;68167;59.120;37.898;2023-05-08T08:36:13;101446.81;;;10.87;36.10
71697;BME280;68167;59.120;37.898;2023-05-08T08:38:39;101434.69;;;10.91;36.03
71697;BME280;68167;59.120;37.898;2023-05-08T08:41:06;101385.22;;;10.77;36.16
71697;BME280;68167;59.120;37.898;2023-05-08T08:43:33;101422.19;;;11.10;35.19
71697;BME280;68167;59.120;37.898;2023-05-08T08:46:10;101396.91;;;11.01;35.39
71697;BME280;68167;59.120;37.898;2023-05-08T08:48:43;101386.66;;;11.16;35.60
71697;BME280;68167;59.120;37.898;2023-05-08T08:51:40;101427.44;;;11.60;35.42
71697;BME280;68167;59.120;37.898;2023-05-08T08:54:11;101424.47;;;11.86;34.60
71697;BME280;68167;59.120;37.898;2023-05-08T08:56:40;101398.50;;;11.93;34.15
71697;BME280;68167;59.120;37.898;2023-05-08T08:59:10;101413.84;;;11.98;34.10
71697;BME280;68167;59.120;37.898;2023-05-08T09:01:39;101372.44;;;11.77;33.95
71697;BME280;68167;59.120;37.898;2023-05-08T09:04:06;101406.06;;;11.96;34.14
71697;BME280;68167;59.120;37.898;2023-05-08T09:06:35;101415.47;;;11.99;33.69
71697;BME280;68167;59.120;37.898;2023-05-08T09:09:02;101335.56;;;11.55;33.72
71697;BME280;68167;59.120;37.898;2023-05-08T09:11:29;101376.13;;;11.76;33.82
71697;BME280;68167;59.120;37.898;2023-05-08T09:13:56;101413.84;;;11.98;34.01
71697;BME280;68167;59.120;37.898;2023-05-08T09:16:23;101379.69;;;11.88;34.14
71697;BME280;68167;59.120;37.898;2023-05-08T09:18:50;101392.56;;;12.09;33.85
71697;BME280;68167;59.120;37.898;2023-05-08T09:21:17;101405.25;;;12.37;33.10
71697;BME280;68167;59.120;37.898;2023-05-08T09:23:56;101425.41;;;12.51;33.10
71697;BME280;68167;59.120;37.898;2023-05-08T09:26:32;101403.53;;;12.43;32.59
71697;BME280;68167;59.120;37.898;2023-05-08T09:29:19;101418.31;;;12.57;32.90
71697;BME280;68167;59.120;37.898;2023-05-08T09:31:50;101366.84;;;12.27;32.34
71697;BME280;68167;59.120;37.898;2023-05-08T09:34:28;101402.50;;;12.44;32.55
71697;BME280;68167;59.120;37.898;2023-05-08T09:39:25;101385.34;;;12.10;32.25
71697;BME280;68167;59.120;37.898;2023-05-08T09:45:00;101390.28;;;12.25;32.55
71697;BME280;68167;59.120;37.898;2023-05-08T09:47:26;101360.69;;;12.26;31.46
71697;BME280;68167;59.120;37.898;2023-05-08T09:50:00;101363.03;;;12.46;31.65
71697;BME280;68167;59.120;37.898;2023-05-08T09:52:28;101409.19;;;12.88;30.72
71697;BME280;68167;59.120;37.898;2023-05-08T09:55:02;101396.53;;;12.83;30.72
71697;BME280;68167;59.120;37.898;2023-05-08T09:57:50;101368.75;;;12.61;30.46
71697;BME280;68167;59.120;37.898;2023-05-08T10:00:17;101414.06;;;12.68;29.80
71697;BME280;68167;59.120;37.898;2023-05-08T10:03:00;101406.38;;;12.71;29.91
71697;BME280;68167;59.120;37.898;2023-05-08T10:05:29;101397.69;;;12.76;29.69
71697;BME280;68167;59.120;37.898;2023-05-08T10:07:57;101331.44;;;12.43;29.62
71697;BME280;68167;59.120;37.898;2023-05-08T10:10:26;101409.75;;;13.02;29.41
71697;BME280;68167;59.120;37.898;2023-05-08T10:12:54;101408.84;;;12.96;28.05
71697;BME280;68167;59.120;37.898;2023-05-08T10:15:27;101398.03;;;12.79;28.73
71697;BME280;68167;59.120;37.898;2023-05-08T10:18:03;101414.41;;;12.83;28.05
71697;BME280;68167;59.120;37.898;2023-05-08T10:20:33;101335.94;;;12.19;28.38
71697;BME280;68167;59.120;37.898;2023-05-08T10:23:00;101405.19;;;12.56;28.79
71697;BME280;68167;59.120;37.898;2023-05-08T10:25:33;101424.91;;;12.43;29.32
71697;BME280;68167;59.120;37.898;2023-05-08T10:28:09;101408.72;;;12.68;29.69
71697;BME280;68167;59.120;37.898;2023-05-08T10:30:49;101433.75;;;13.20;29.54
71697;BME280;68167;59.120;37.898;2023-05-08T10:33:20;101438.38;;;13.25;29.46
71697;BME280;68167;59.120;37.898;2023-05-08T10:35:47;101399.53;;;13.34;29.88
71697;BME280;68167;59.120;37.898;2023-05-08T10:38:15;101417.91;;;13.54;29.15
71697;BME280;68167;59.120;37.898;2023-05-08T10:40:42;101421.91;;;13.68;29.68
71697;BME280;68167;59.120;37.898;2023-05-08T10:43:10;101381.97;;;13.78;29.38
71697;BME280;68167;59.120;37.898;2023-05-08T10:45:37;101406.94;;;14.40;28.32
71697;BME280;68167;59.120;37.898;2023-05-08T10:50:44;101381.78;;;14.25;27.83
71697;BME280;68167;59.120;37.898;2023-05-08T10:55:54;101405.66;;;13.98;27.31
71697;BME280;68167;59.120;37.898;2023-05-08T10:58:31;101413.50;;;14.16;27.08
71697;BME280;68167;59.120;37.898;2023-05-08T11:03:32;101324.75;;;13.96;27.28
71697;BME280;68167;59.120;37.898;2023-05-08T11:05:59;101363.47;;;14.05;26.85
71697;BME280;68167;59.120;37.898;2023-05-08T11:08:28;101365.56;;;14.03;26.70
71697;BME280;68167;59.120;37.898;2023-05-08T11:13:35;101356.59;;;14.09;26.62
71697;BME280;68167;59.120;37.898;2023-05-08T11:16:03;101393.09;;;14.60;26.63
71697;BME280;68167;59.120;37.898;2023-05-08T11:18:32;101371.81;;;14.87;26.76
71697;BME280;68167;59.120;37.898;2023-05-08T11:21:00;101398.28;;;15.39;26.03
71697;BME280;68167;59.120;37.898;2023-05-08T11:23:32;101387.78;;;15.81;25.71
71697;BME280;68167;59.120;37.898;2023-05-08T11:26:04;101349.28;;;15.70;25.69
71697;BME280;68167;59.120;37.898;2023-05-08T11:29:17;101390.91;;;15.73;25.53
71697;BME280;68167;59.120;37.898;2023-05-08T11:31:20;101355.25;;;15.34;25.96
71697;BME280;68167;59.120;37.898;2023-05-08T11:33:46;101382.84;;;15.73;25.71
71697;BME280;68167;59.120;37.898;2023-05-08T11:36:20;101329.38;;;15.44;25.31
71697;BME280;68167;59.120;37.898;2023-05-08T11:39:07;101383.16;;;15.98;25.56
71697;BME280;68167;59.120;37.898;2023-05-08T11:41:34;101376.84;;;16.46;25.63
71697;BME280;68167;59.120;37.898;2023-05-08T11:46:37;101356.91;;;17.17;23.97
71697;BME280;68167;59.120;37.898;2023-05-08T11:49:04;101341.97;;;16.94;24.24
71697;BME280;68167;59.120;37.898;2023-05-08T11:51:32;101354.25;;;16.74;23.73
71697;BME280;68167;59.120;37.898;2023-05-08T11:53:59;101397.50;;;16.68;23.38
71697;BME280;68167;59.120;37.898;2023-05-08T11:56:27;101387.97;;;16.23;23.36
71697;BME280;68167;59.120;37.898;2023-05-08T11:59:20;101376.34;;;15.91;24.10
71697;BME280;68167;59.120;37.898;2023-05-08T12:01:48;101382.28;;;15.71;23.63
71697;BME280;68167;59.120;37.898;2023-05-08T12:04:15;101350.41;;;15.53;23.68
71697;BME280;68167;59.120;37.898;2023-05-08T12:06:41;101355.53;;;15.54;24.54
71697;BME280;68167;59.120;37.898;2023-05-08T12:09:14;101240.69;;;14.86;24.79
71697;BME280;68167;59.120;37.898;2023-05-08T12:11:41;101319.47;;;15.72;24.07
71697;BME280;68167;59.120;37.898;2023-05-08T12:14:11;101307.72;;;16.05;23.59
71697;BME280;68167;59.120;37.898;2023-05-08T12:16:39;101342.72;;;16.47;23.27
71697;BME280;68167;59.120;37.898;2023-05-08T12:19:12;101350.75;;;16.42;23.02
71697;BME280;68167;59.120;37.898;2023-05-08T12:21:48;101314.56;;;15.91;23.04
71697;BME280;68167;59.120;37.898;2023-05-08T12:24:16;101361.94;;;15.75;22.99
71697;BME280;68167;59.120;37.898;2023-05-08T12:26:48;101353.56;;;15.28;23.44
71697;BME280;68167;59.120;37.898;2023-05-08T12:29:18;101344.50;;;14.90;23.55
71697;BME280;68167;59.120;37.898;2023-05-08T12:31:44;101360.59;;;14.90;23.56
71697;BME280;68167;59.120;37.898;2023-05-08T12:34:11;101324.00;;;14.45;24.22
71697;BME280;68167;59.120;37.898;2023-05-08T12:36:38;101363.47;;;14.50;23.91
71697;BME280;68167;59.120;37.898;2023-05-08T12:39:16;101333.13;;;14.16;24.26
71697;BME280;68167;59.120;37.898;2023-05-08T12:41:48;101321.34;;;14.00;24.54
71697;BME280;68167;59.120;37.898;2023-05-08T12:44:21;101304.78;;;13.87;24.34
71697;BME280;68167;59.120;37.898;2023-05-08T12:46:52;101323.03;;;13.90;24.62
71697;BME280;68167;59.120;37.898;2023-05-08T12:49:26;101327.34;;;13.91;24.84
71697;BME280;68167;59.120;37.898;2023-05-08T12:52:04;101354.38;;;14.06;24.50
71697;BME280;68167;59.120;37.898;2023-05-08T12:54:36;101356.50;;;14.04;24.61
71697;BME280;68167;59.120;37.898;2023-05-08T12:57:11;101332.22;;;13.94;24.54
71697;BME280;68167;59.120;37.898;2023-05-08T12:59:39;101309.69;;;13.78;25.00
71697;BME280;68167;59.120;37.898;2023-05-08T13:02:20;101308.84;;;13.89;24.70
71697;BME280;68167;59.120;37.898;2023-05-08T13:04:53;101319.91;;;14.09;24.31
71697;BME280;68167;59.120;37.898;2023-05-08T13:07:30;101335.72;;;15.16;24.46
71697;BME280;68167;59.120;37.898;2023-05-08T13:09:58;101206.63;;;15.62;24.11
71697;BME280;68167;59.120;37.898;2023-05-08T13:12:27;101339.56;;;17.55;22.99
71697;BME280;68167;59.120;37.898;2023-05-08T13:14:53;101343.47;;;18.30;22.12
71697;BME280;68167;59.120;37.898;2023-05-08T13:17:20;101259.34;;;18.28;21.46
71697;BME280;68167;59.120;37.898;2023-05-08T13:19:46;101340.97;;;18.99;19.67
71697;BME280;68167;59.120;37.898;2023-05-08T13:22:13;101340.84;;;19.35;19.82
71697;BME280;68167;59.120;37.898;2023-05-08T13:24:39;101339.19;;;19.93;19.74
71697;BME280;68167;59.120;37.898;2023-05-08T13:27:05;101331.78;;;20.43;19.44
71697;BME280;68167;59.120;37.898;2023-05-08T13:29:32;101340.63;;;21.07;18.75
71697;BME280;68167;59.120;37.898;2023-05-08T13:31:58;101342.81;;;21.28;18.33